createdAt,value
2018-04-02T15:03:59.800Z,14.57
2018-04-02T15:06:26.481Z,14.41
2018-04-02T15:08:53.615Z,14.44
2018-04-02T15:11:20.758Z,14.34
2018-04-02T15:13:47.532Z,14.37
2018-04-02T15:16:14.134Z,14.48
2018-04-02T15:18:41.417Z,14.60
2018-04-02T15:21:08.745Z,14.48
2018-04-02T15:23:36.660Z,14.44
2018-04-02T15:26:03.516Z,14.49
2018-04-02T15:28:30.535Z,14.60
2018-04-02T15:30:58.019Z,14.55
2018-04-02T15:33:24.887Z,14.59
2018-04-02T15:35:51.857Z,14.53
2018-04-02T15:38:19.784Z,14.51
2018-04-02T15:40:46.780Z,14.58
2018-04-02T15:43:13.978Z,14.69
2018-04-02T15:45:41.556Z,14.63
2018-04-02T15:48:08.583Z,14.74
2018-04-02T15:50:36.261Z,14.66
2018-04-02T15:53:03.396Z,14.56
2018-04-02T15:55:31.010Z,14.52
2018-04-02T15:57:58.886Z,14.57
2018-04-02T16:00:27.197Z,14.62
2018-04-02T16:02:55.028Z,14.52
2018-04-02T16:05:22.319Z,14.42
2018-04-02T16:07:49.528Z,14.60
2018-04-02T16:10:16.475Z,14.56
2018-04-02T16:12:43.424Z,14.71
2018-04-02T16:15:11.022Z,14.57
2018-04-02T16:17:38.419Z,14.48
2018-04-02T16:20:05.997Z,14.60
2018-04-02T16:22:35.838Z,14.63
2018-04-02T16:25:04.357Z,14.61
2018-04-02T16:27:32.058Z,14.69
2018-04-02T16:29:58.813Z,14.69
2018-04-02T16:32:31.328Z,14.57
2018-04-02T16:35:00.042Z,14.55
2018-04-02T16:37:28.819Z,14.51
2018-04-02T16:39:56.257Z,14.41
2018-04-02T16:42:25.190Z,14.53
2018-04-02T16:44:52.585Z,14.52
2018-04-02T16:47:21.325Z,14.42
2018-04-02T16:49:51.387Z,14.36
2018-04-02T16:52:19.593Z,14.42
2018-04-02T16:54:48.320Z,14.34
2018-04-02T16:57:16.793Z,14.31
2018-04-02T16:59:45.292Z,14.43
2018-04-02T17:02:12.897Z,14.36
2018-04-02T17:04:41.282Z,14.38
2018-04-02T17:07:08.650Z,14.29
2018-04-02T17:09:35.513Z,14.30
2018-04-02T17:12:02.657Z,14.31
2018-04-02T17:14:30.695Z,14.29
2018-04-02T17:16:57.752Z,14.14
2018-04-02T17:21:59.307Z,14.16
2018-04-02T17:24:28.012Z,14.03
2018-04-02T17:26:56.719Z,14.00
2018-04-02T17:29:23.935Z,13.98
2018-04-02T17:31:51.042Z,13.98
2018-04-02T17:34:18.457Z,13.99
2018-04-02T17:36:48.765Z,13.92
2018-04-02T17:39:15.764Z,13.92
2018-04-02T17:41:42.684Z,13.86
2018-04-02T17:44:09.929Z,13.91
2018-04-02T17:46:36.915Z,13.84
2018-04-02T17:49:05.441Z,13.70
2018-04-02T17:51:32.871Z,13.56
2018-04-02T17:54:01.088Z,13.49
2018-04-02T17:56:28.087Z,13.40
2018-04-02T17:58:55.528Z,13.30
2018-04-02T18:01:23.448Z,13.28
2018-04-02T18:03:51.382Z,13.27
2018-04-02T18:06:18.346Z,13.29
2018-04-02T18:08:45.528Z,13.21
2018-04-02T18:11:13.275Z,13.17
2018-04-02T18:13:40.970Z,13.14
2018-04-02T18:16:08.052Z,13.08
2018-04-02T18:18:37.303Z,13.07
2018-04-02T18:21:07.019Z,13.04
2018-04-02T18:23:34.673Z,13.01
2018-04-02T18:26:02.535Z,12.84
2018-04-02T18:28:29.929Z,12.91
2018-04-02T18:30:58.461Z,12.81
2018-04-02T18:33:25.335Z,12.64
2018-04-02T18:35:52.364Z,12.56
2018-04-02T18:38:21.185Z,12.57
2018-04-02T18:40:50.157Z,12.51
2018-04-02T18:43:17.073Z,12.51
2018-04-02T18:45:46.324Z,12.41
2018-04-02T18:48:13.990Z,12.40
2018-04-02T18:50:41.692Z,12.30
2018-04-02T18:53:08.662Z,12.19
2018-04-02T18:55:36.440Z,12.15
2018-04-02T18:58:05.283Z,12.15
2018-04-02T19:00:32.920Z,12.00
2018-04-02T19:03:02.428Z,11.97
2018-04-02T19:05:30.030Z,11.84
2018-04-02T19:07:57.181Z,11.94
2018-04-02T19:10:26.522Z,11.93
2018-04-02T19:12:54.989Z,11.88
2018-04-02T19:15:22.173Z,11.81
2018-04-02T19:17:49.381Z,11.75
2018-04-02T19:20:18.279Z,11.58
2018-04-02T19:22:47.736Z,11.46
2018-04-02T19:25:14.667Z,11.47
2018-04-02T19:27:42.146Z,11.57
2018-04-02T19:30:09.374Z,11.44
2018-04-02T19:32:37.220Z,11.32
2018-04-02T19:35:04.278Z,11.33
2018-04-02T19:37:31.340Z,11.40
2018-04-02T19:39:59.470Z,11.42
2018-04-02T19:42:26.381Z,11.47
2018-04-02T19:44:53.237Z,11.54
2018-04-02T19:47:20.129Z,11.58
2018-04-02T19:49:47.920Z,11.61
2018-04-02T19:52:14.641Z,11.68
2018-04-02T19:54:42.006Z,11.77
2018-04-02T19:57:08.783Z,11.77
2018-04-02T19:59:35.385Z,11.83
2018-04-02T20:02:02.208Z,11.84
2018-04-02T20:04:28.949Z,11.70
2018-04-02T20:06:56.056Z,11.42
2018-04-02T20:09:22.984Z,11.42
2018-04-02T20:11:49.695Z,11.38
2018-04-02T20:14:17.188Z,11.41
2018-04-02T20:16:44.628Z,11.34
2018-04-02T20:19:13.021Z,11.32
2018-04-02T20:21:41.441Z,11.14
2018-04-02T20:24:08.746Z,10.99
2018-04-02T20:26:36.605Z,10.93
2018-04-02T20:29:03.538Z,10.80
2018-04-02T20:31:30.875Z,10.78
2018-04-02T20:33:58.119Z,10.69
2018-04-02T20:36:25.315Z,10.63
2018-04-02T20:38:52.386Z,10.60
2018-04-02T20:41:19.241Z,10.54
2018-04-02T20:43:45.642Z,10.57
2018-04-02T20:46:12.598Z,10.67
2018-04-02T20:48:39.485Z,10.54
2018-04-02T20:51:06.451Z,10.45
2018-04-02T20:53:33.327Z,10.50
2018-04-02T20:56:00.515Z,10.55
2018-04-02T20:58:27.772Z,10.41
2018-04-02T21:00:55.694Z,10.33
2018-04-02T21:03:23.926Z,10.25
2018-04-02T21:05:51.038Z,10.14
2018-04-02T21:08:22.429Z,10.23
2018-04-02T21:10:52.522Z,10.29
2018-04-02T21:13:21.627Z,10.31
2018-04-02T21:15:49.458Z,10.28
2018-04-02T21:18:17.670Z,10.14
2018-04-02T21:20:45.213Z,10.06
2018-04-02T21:23:12.875Z,9.94
2018-04-02T21:25:41.894Z,10.01
2018-04-02T21:28:09.315Z,10.00
2018-04-02T21:30:37.996Z,9.95
2018-04-02T21:33:05.240Z,9.86
2018-04-02T21:35:32.386Z,9.81
2018-04-02T21:37:59.887Z,9.82
2018-04-02T21:40:28.596Z,9.75
2018-04-02T21:42:55.775Z,9.73
2018-04-02T21:45:22.612Z,9.71
2018-04-02T21:47:49.281Z,9.69
2018-04-02T21:50:19.610Z,9.81
2018-04-02T21:52:46.879Z,9.82
2018-04-02T21:55:13.770Z,9.86
2018-04-02T21:57:40.663Z,9.88
2018-04-02T22:00:08.919Z,9.90
2018-04-02T22:02:36.491Z,9.93
2018-04-02T22:05:03.324Z,9.96
2018-04-02T22:07:32.041Z,9.99
2018-04-02T22:09:59.746Z,9.90
2018-04-02T22:12:27.039Z,9.72
2018-04-02T22:14:54.975Z,9.59
2018-04-02T22:17:22.674Z,9.47
2018-04-02T22:19:50.361Z,9.33
2018-04-02T22:22:17.870Z,9.30
2018-04-02T22:24:45.385Z,9.32
2018-04-02T22:27:12.756Z,9.40
2018-04-02T22:29:40.168Z,9.39
2018-04-02T22:32:08.429Z,9.38
2018-04-02T22:34:36.524Z,9.52
2018-04-02T22:37:04.184Z,9.47
2018-04-02T22:39:32.218Z,9.38
2018-04-02T22:41:59.742Z,9.38
2018-04-02T22:44:27.273Z,9.30
2018-04-02T22:46:55.269Z,9.18
2018-04-02T22:49:22.480Z,9.17
2018-04-02T22:51:49.611Z,9.16
2018-04-02T22:54:16.747Z,9.18
2018-04-02T22:56:44.477Z,9.09
2018-04-02T22:59:11.289Z,9.14
2018-04-02T23:01:38.642Z,9.21
2018-04-02T23:04:05.788Z,9.19
2018-04-02T23:06:33.058Z,9.21
2018-04-02T23:09:00.560Z,9.19
2018-04-02T23:11:28.254Z,8.92
2018-04-02T23:13:55.011Z,8.69
2018-04-02T23:16:22.331Z,8.74
2018-04-02T23:18:49.384Z,8.62
2018-04-02T23:21:16.089Z,8.67
2018-04-02T23:23:43.214Z,8.79
2018-04-02T23:26:10.356Z,8.71
2018-04-02T23:28:37.568Z,8.59
2018-04-02T23:31:04.743Z,8.55
2018-04-02T23:33:32.185Z,8.52
2018-04-02T23:35:59.854Z,8.58
2018-04-02T23:38:26.893Z,8.44
2018-04-02T23:40:54.239Z,8.36
2018-04-02T23:43:21.811Z,8.36
2018-04-02T23:45:48.858Z,8.38
2018-04-02T23:48:17.174Z,8.44
2018-04-02T23:50:44.583Z,8.60
2018-04-02T23:53:11.712Z,8.68
2018-04-02T23:55:39.387Z,8.65
2018-04-02T23:58:06.303Z,8.66
